createdAt,value
2018-08-10T00:00:43.363Z,10.70
2018-08-10T00:03:11.153Z,10.83
2018-08-10T00:05:40.084Z,9.37
2018-08-10T00:08:08.106Z,8.83
2018-08-10T00:10:35.799Z,10.90
2018-08-10T00:13:03.655Z,9.73
2018-08-10T00:15:31.417Z,11.77
2018-08-10T00:17:59.169Z,9.23
2018-08-10T00:20:26.992Z,8.27
2018-08-10T00:22:54.738Z,10.17
2018-08-10T00:25:22.484Z,8.83
2018-08-10T00:27:50.233Z,8.17
2018-08-10T00:30:18.953Z,8.07
2018-08-10T00:32:47.933Z,12.27
2018-08-10T00:35:15.749Z,8.40
2018-08-10T00:37:44.158Z,10.37
2018-08-10T00:40:14.664Z,12.00
2018-08-10T00:42:42.552Z,9.73
2018-08-10T00:45:11.465Z,7.90
2018-08-10T00:47:39.285Z,8.60
2018-08-10T00:50:08.180Z,7.97
2018-08-10T00:52:35.917Z,7.07
2018-08-10T00:55:04.625Z,7.77
2018-08-10T00:57:32.401Z,8.47
2018-08-10T01:00:00.110Z,8.97
2018-08-10T01:02:27.913Z,7.50
2018-08-10T01:04:55.705Z,7.60
2018-08-10T01:07:23.393Z,9.03
2018-08-10T01:09:51.092Z,7.73
2018-08-10T01:12:18.844Z,8.00
2018-08-10T01:14:46.565Z,8.80
2018-08-10T01:17:14.309Z,13.17
2018-08-10T01:19:42.072Z,11.47
2018-08-10T01:22:09.785Z,11.97
2018-08-10T01:24:37.444Z,10.10
2018-08-10T01:27:09.722Z,8.37
2018-08-10T01:29:37.478Z,9.17
2018-08-10T01:32:05.198Z,8.57
2018-08-10T01:34:32.910Z,7.77
2018-08-10T01:37:00.636Z,8.77
2018-08-10T01:39:28.329Z,8.60
2018-08-10T01:41:56.054Z,9.13
2018-08-10T01:44:23.775Z,8.93
2018-08-10T01:46:51.506Z,9.77
2018-08-10T01:49:19.404Z,10.27
2018-08-10T01:51:47.094Z,7.40
2018-08-10T01:54:14.829Z,9.70
2018-08-10T01:56:42.593Z,10.83
2018-08-10T01:59:10.332Z,8.77
2018-08-10T02:01:38.050Z,8.90
2018-08-10T02:04:05.810Z,8.97
2018-08-10T02:06:33.602Z,8.67
2018-08-10T02:09:01.315Z,9.93
2018-08-10T02:11:29.069Z,12.90
2018-08-10T02:13:56.801Z,10.90
2018-08-10T02:16:24.487Z,9.17
2018-08-10T02:18:52.214Z,10.53
2018-08-10T02:21:19.877Z,10.07
2018-08-10T02:23:47.636Z,11.03
2018-08-10T02:26:15.320Z,10.73
2018-08-10T02:28:42.989Z,8.93
2018-08-10T02:31:10.677Z,9.57
2018-08-10T02:33:38.380Z,11.73
2018-08-10T02:36:06.082Z,8.27
2018-08-10T02:38:33.792Z,9.63
2018-08-10T02:41:01.485Z,7.43
2018-08-10T02:43:29.280Z,9.20
2018-08-10T02:45:56.986Z,8.80
2018-08-10T02:48:24.731Z,10.47
2018-08-10T02:50:52.473Z,10.23
2018-08-10T02:53:20.143Z,8.90
2018-08-10T02:55:47.891Z,8.20
2018-08-10T02:58:15.598Z,7.33
2018-08-10T03:00:43.324Z,11.13
2018-08-10T03:03:11.069Z,11.07
2018-08-10T03:05:38.812Z,8.83
2018-08-10T03:08:06.580Z,10.00
2018-08-10T03:10:34.352Z,11.27
2018-08-10T03:13:02.060Z,9.97
2018-08-10T03:15:29.760Z,7.97
2018-08-10T03:17:57.542Z,7.13
2018-08-10T03:20:25.254Z,8.53
2018-08-10T03:22:52.940Z,8.43
2018-08-10T03:25:20.690Z,9.27
2018-08-10T03:27:48.377Z,9.97
2018-08-10T03:30:16.063Z,8.63
2018-08-10T03:32:43.801Z,12.50
2018-08-10T03:35:11.575Z,8.17
2018-08-10T03:37:39.279Z,9.20
2018-08-10T03:40:13.304Z,8.60
2018-08-10T03:42:41.074Z,9.40
2018-08-10T03:45:09.065Z,9.63
2018-08-10T03:47:36.801Z,8.50
2018-08-10T03:50:05.639Z,10.63
2018-08-10T03:52:33.347Z,9.63
2018-08-10T03:55:01.188Z,8.87
2018-08-10T03:57:28.873Z,8.53
2018-08-10T03:59:56.561Z,9.10
2018-08-10T04:02:24.314Z,9.27
2018-08-10T04:04:51.999Z,11.33
2018-08-10T04:07:19.717Z,9.33
2018-08-10T04:09:47.503Z,8.57
2018-08-10T04:12:15.182Z,11.57
2018-08-10T04:14:42.952Z,13.93
2018-08-10T04:17:16.153Z,9.90
2018-08-10T04:19:43.846Z,11.57
2018-08-10T04:22:11.582Z,11.10
2018-08-10T04:24:39.282Z,9.53
2018-08-10T04:27:06.987Z,10.87
2018-08-10T04:29:34.778Z,11.47
2018-08-10T04:32:02.497Z,8.20
2018-08-10T04:34:30.229Z,17.17
2018-08-10T04:36:57.997Z,10.40
2018-08-10T04:39:25.892Z,10.87
2018-08-10T04:41:53.634Z,13.20
2018-08-10T04:44:21.312Z,10.90
2018-08-10T04:46:49.057Z,11.00
2018-08-10T04:49:16.749Z,9.77
2018-08-10T04:51:44.500Z,10.70
2018-08-10T04:54:12.233Z,10.20
2018-08-10T04:56:39.961Z,11.57
2018-08-10T04:59:07.662Z,9.97
2018-08-10T05:01:35.371Z,9.77
2018-08-10T05:04:03.164Z,14.50
2018-08-10T05:06:30.876Z,12.07
2018-08-10T05:08:58.674Z,11.83
2018-08-10T05:11:26.426Z,12.20
2018-08-10T05:13:54.126Z,12.73
2018-08-10T05:16:21.871Z,12.90
2018-08-10T05:18:49.623Z,14.27
2018-08-10T05:21:17.335Z,15.97
2018-08-10T05:23:45.147Z,17.47
2018-08-10T05:26:12.894Z,17.57
2018-08-10T05:28:40.749Z,18.40
2018-08-10T05:31:08.466Z,21.17
2018-08-10T05:33:36.186Z,24.60
2018-08-10T05:36:03.902Z,29.07
2018-08-10T05:38:31.662Z,25.63
2018-08-10T05:40:59.381Z,19.10
2018-08-10T05:43:27.055Z,19.63
2018-08-10T05:45:54.926Z,17.37
2018-08-10T05:48:22.616Z,21.67
2018-08-10T05:50:50.310Z,19.90
2018-08-10T05:53:18.085Z,19.93
2018-08-10T05:55:45.794Z,20.80
2018-08-10T05:58:13.502Z,22.07
2018-08-10T06:00:41.300Z,23.33
2018-08-10T06:03:09.001Z,22.07
2018-08-10T06:05:36.699Z,32.37
2018-08-10T06:08:04.476Z,25.60
2018-08-10T06:10:32.249Z,21.43
2018-08-10T06:12:59.996Z,18.60
2018-08-10T06:15:27.807Z,19.93
2018-08-10T06:17:55.521Z,21.60
2018-08-10T06:20:23.228Z,19.03
2018-08-10T06:22:50.997Z,18.63
2018-08-10T06:25:18.688Z,18.93
2018-08-10T06:27:46.863Z,21.93
2018-08-10T06:30:14.562Z,19.73
2018-08-10T06:32:42.246Z,18.53
2018-08-10T06:35:10.007Z,17.27
2018-08-10T06:37:37.702Z,17.37
2018-08-10T06:40:05.530Z,16.10
2018-08-10T06:42:33.296Z,17.73
2018-08-10T06:45:01.084Z,14.97
2018-08-10T06:47:28.719Z,15.53
2018-08-10T06:49:56.438Z,14.37
2018-08-10T06:52:24.172Z,15.57
2018-08-10T06:54:51.892Z,13.20
2018-08-10T06:57:19.635Z,13.07
2018-08-10T06:59:47.339Z,13.43
2018-08-10T07:02:15.054Z,14.93
2018-08-10T07:04:42.805Z,13.17
2018-08-10T07:07:10.504Z,13.97
2018-08-10T07:09:38.213Z,11.53
2018-08-10T07:12:05.957Z,12.67
2018-08-10T07:14:33.690Z,10.97
2018-08-10T07:17:01.398Z,13.87
2018-08-10T07:19:29.124Z,11.43
2018-08-10T07:21:56.835Z,10.53
2018-08-10T07:24:24.625Z,11.30
2018-08-10T07:26:52.374Z,12.23
2018-08-10T07:29:20.103Z,10.37
2018-08-10T07:31:47.813Z,10.83
2018-08-10T07:34:15.537Z,11.77
2018-08-10T07:36:43.237Z,11.40
2018-08-10T07:39:12.033Z,10.23
2018-08-10T07:41:39.925Z,11.70
2018-08-10T07:44:07.629Z,11.73
2018-08-10T07:46:35.694Z,11.00
2018-08-10T07:49:03.394Z,11.13
2018-08-10T07:51:31.091Z,10.00
2018-08-10T07:53:58.797Z,10.10
2018-08-10T07:56:26.520Z,9.97
2018-08-10T07:58:54.315Z,10.23
2018-08-10T08:01:22.134Z,10.43
2018-08-10T08:03:49.919Z,8.53
2018-08-10T08:06:17.802Z,10.23
2018-08-10T08:08:45.481Z,9.83
2018-08-10T08:11:13.273Z,9.90
2018-08-10T08:13:41.061Z,6.80
2018-08-10T08:16:08.862Z,6.43
2018-08-10T08:18:37.049Z,7.00
2018-08-10T08:21:09.953Z,11.27
2018-08-10T08:23:37.741Z,5.90
2018-08-10T08:26:05.790Z,9.13
2018-08-10T08:28:34.002Z,6.50
2018-08-10T08:31:02.661Z,6.80
2018-08-10T08:33:30.415Z,7.33
2018-08-10T08:35:59.109Z,7.70
2018-08-10T08:38:38.381Z,7.87
2018-08-10T08:41:07.548Z,8.60
2018-08-10T08:46:05.564Z,7.10
2018-08-10T08:48:49.471Z,7.83
2018-08-10T08:51:23.713Z,8.00
2018-08-10T08:55:04.933Z,8.43
2018-08-10T08:57:33.399Z,11.20
2018-08-10T09:00:01.689Z,10.80
2018-08-10T09:02:29.879Z,11.27
2018-08-10T09:05:05.756Z,12.70
2018-08-10T09:07:33.795Z,15.00
2018-08-10T09:10:02.168Z,16.90
2018-08-10T09:12:30.345Z,16.83
2018-08-10T09:15:02.527Z,18.13
2018-08-10T09:17:30.298Z,18.77
2018-08-10T09:19:58.110Z,20.13
2018-08-10T09:22:25.831Z,21.73
2018-08-10T09:24:53.585Z,21.83
2018-08-10T09:27:21.315Z,22.37
2018-08-10T09:29:49.104Z,25.80
2018-08-10T09:32:16.871Z,25.30
2018-08-10T09:34:44.597Z,25.57
2018-08-10T09:37:12.338Z,25.83
2018-08-10T09:39:40.082Z,26.77
2018-08-10T09:42:08.024Z,26.73
2018-08-10T09:44:35.809Z,27.17
2018-08-10T09:47:04.146Z,26.13
2018-08-10T09:49:36.240Z,28.00
2018-08-10T09:52:04.182Z,27.13
2018-08-10T09:54:31.921Z,27.57
2018-08-10T09:57:03.423Z,29.10
2018-08-10T09:59:31.474Z,33.63
2018-08-10T10:02:04.920Z,29.47
2018-08-10T10:04:33.076Z,29.20
2018-08-10T10:07:01.030Z,29.90
2018-08-10T10:09:29.090Z,29.50
2018-08-10T10:11:56.883Z,29.90
2018-08-10T10:14:24.651Z,29.77
2018-08-10T10:16:52.525Z,33.90
2018-08-10T10:19:20.350Z,31.67
2018-08-10T10:21:48.103Z,30.47
2018-08-10T10:24:15.849Z,31.80
2018-08-10T10:26:43.555Z,31.97
2018-08-10T10:29:11.277Z,33.90
2018-08-10T10:31:39.100Z,32.27
2018-08-10T10:34:06.846Z,48.77
2018-08-10T10:36:34.633Z,50.03
2018-08-10T10:39:02.413Z,49.63
2018-08-10T10:41:30.208Z,50.17
2018-08-10T10:43:58.008Z,52.17
2018-08-10T10:46:25.722Z,43.30
2018-08-10T10:48:53.854Z,33.83
2018-08-10T10:51:21.520Z,32.77
2018-08-10T10:53:49.392Z,29.47
2018-08-10T10:56:17.119Z,30.43
2018-08-10T10:58:44.849Z,33.67
2018-08-10T11:01:12.918Z,34.43
2018-08-10T11:03:40.643Z,39.60
2018-08-10T11:06:08.877Z,46.83
2018-08-10T11:08:36.634Z,51.97
2018-08-10T11:11:04.411Z,44.23
2018-08-10T11:13:32.122Z,51.90
2018-08-10T11:15:59.899Z,37.87
2018-08-10T11:18:27.632Z,39.50
2018-08-10T11:20:55.376Z,34.20
2018-08-10T11:23:23.108Z,27.77
2018-08-10T11:25:50.900Z,28.77
2018-08-10T11:28:18.541Z,26.10
2018-08-10T11:30:46.341Z,23.43
2018-08-10T11:33:14.100Z,23.07
2018-08-10T11:35:41.816Z,25.43
2018-08-10T11:38:09.738Z,23.97
2018-08-10T11:40:37.529Z,20.17
2018-08-10T11:43:05.295Z,23.07
2018-08-10T11:45:33.010Z,20.30
2018-08-10T11:48:00.711Z,22.17
2018-08-10T11:50:28.475Z,31.07
2018-08-10T11:52:56.249Z,39.43
2018-08-10T11:55:23.943Z,30.90
2018-08-10T11:57:51.653Z,30.90
2018-08-10T12:00:19.394Z,28.13
2018-08-10T12:02:47.243Z,21.97
2018-08-10T12:05:15.012Z,28.60
2018-08-10T12:07:42.763Z,32.03
2018-08-10T12:10:10.514Z,26.07
2018-08-10T12:12:38.450Z,29.97
2018-08-10T12:15:07.851Z,15.93
2018-08-10T12:17:35.735Z,15.03
2018-08-10T12:20:03.597Z,16.37
2018-08-10T12:22:31.297Z,16.17
2018-08-10T12:24:59.002Z,12.80
2018-08-10T12:27:26.726Z,13.20
2018-08-10T12:29:54.491Z,14.50
2018-08-10T12:32:22.201Z,15.37
2018-08-10T12:34:49.889Z,19.03
2018-08-10T12:37:17.701Z,11.97
2018-08-10T12:39:45.443Z,16.37
2018-08-10T12:42:13.158Z,17.07
2018-08-10T12:44:40.897Z,15.43
2018-08-10T12:47:08.629Z,16.30
2018-08-10T12:49:36.352Z,18.70
2018-08-10T12:52:04.110Z,14.53
2018-08-10T12:54:31.874Z,18.07
2018-08-10T12:56:59.736Z,18.07
2018-08-10T12:59:27.582Z,15.80
2018-08-10T13:01:55.301Z,15.63
2018-08-10T13:04:23.034Z,13.80
2018-08-10T13:06:50.935Z,17.63
2018-08-10T13:09:18.713Z,15.00
2018-08-10T13:11:46.466Z,14.83
2018-08-10T13:14:14.238Z,16.93
2018-08-10T13:16:41.989Z,13.37
2018-08-10T13:19:09.743Z,15.67
2018-08-10T13:21:37.515Z,16.43
2018-08-10T13:24:05.290Z,15.53
2018-08-10T13:26:33.065Z,18.07
2018-08-10T13:29:01.010Z,15.77
2018-08-10T13:31:28.758Z,18.00
2018-08-10T13:33:56.513Z,12.03
2018-08-10T13:36:24.313Z,14.53
2018-08-10T13:38:52.053Z,16.30
2018-08-10T13:41:19.854Z,13.70
2018-08-10T13:43:47.602Z,14.70
2018-08-10T13:46:15.434Z,13.37
2018-08-10T13:48:43.187Z,11.30
2018-08-10T13:51:10.954Z,11.03
2018-08-10T13:53:38.695Z,14.17
2018-08-10T13:56:06.405Z,15.17
2018-08-10T13:58:34.215Z,12.13
2018-08-10T14:01:01.945Z,13.60
2018-08-10T14:03:29.770Z,15.67
2018-08-10T14:05:57.834Z,15.53
2018-08-10T14:08:25.668Z,12.60
2018-08-10T14:10:53.494Z,12.07
2018-08-10T14:13:21.326Z,20.80
2018-08-10T14:15:49.181Z,11.33
2018-08-10T14:18:16.882Z,12.77
2018-08-10T14:20:44.871Z,11.80
2018-08-10T14:23:12.595Z,10.60
2018-08-10T14:25:40.398Z,12.73
2018-08-10T14:28:08.302Z,11.83
2018-08-10T14:30:36.020Z,14.17
2018-08-10T14:33:03.769Z,14.77
2018-08-10T14:35:31.560Z,13.50
2018-08-10T14:37:59.385Z,13.77
2018-08-10T14:40:27.159Z,9.83
2018-08-10T14:42:54.969Z,11.23
2018-08-10T14:45:22.815Z,11.10
2018-08-10T14:47:50.601Z,20.37
2018-08-10T14:50:18.377Z,17.43
2018-08-10T14:52:46.229Z,16.03
2018-08-10T14:55:15.293Z,12.23
2018-08-10T14:57:43.193Z,19.57
2018-08-10T15:00:14.775Z,20.87
2018-08-10T15:02:42.919Z,15.73
2018-08-10T15:05:10.822Z,17.00
2018-08-10T15:07:38.693Z,14.00
2018-08-10T15:10:08.582Z,12.93
2018-08-10T15:12:36.615Z,13.03
2018-08-10T15:15:04.661Z,9.77
2018-08-10T15:17:32.452Z,11.60
2018-08-10T15:20:00.236Z,12.63
2018-08-10T15:22:28.072Z,13.90
2018-08-10T15:24:55.902Z,13.40
2018-08-10T15:27:23.812Z,12.77
2018-08-10T15:29:52.011Z,12.13
2018-08-10T15:32:19.822Z,14.87
2018-08-10T15:34:47.609Z,12.17
2018-08-10T15:37:15.424Z,15.43
2018-08-10T15:39:43.909Z,11.90
2018-08-10T15:42:11.676Z,11.57
2018-08-10T15:44:39.496Z,11.93
2018-08-10T15:47:07.351Z,14.00
2018-08-10T15:49:35.187Z,14.70
2018-08-10T15:52:02.980Z,17.27
2018-08-10T15:54:30.763Z,14.17
2018-08-10T15:56:58.541Z,14.43
2018-08-10T15:59:26.303Z,15.00
2018-08-10T16:01:54.056Z,13.20
2018-08-10T16:04:21.857Z,11.83
2018-08-10T16:06:49.602Z,13.50
2018-08-10T16:09:17.337Z,14.40
2018-08-10T16:11:45.142Z,11.47
2018-08-10T16:14:12.938Z,12.93
2018-08-10T16:16:40.704Z,10.80
2018-08-10T16:19:08.646Z,12.10
2018-08-10T16:21:36.446Z,12.53
2018-08-10T16:24:04.241Z,12.90
2018-08-10T16:26:32.127Z,14.43
2018-08-10T16:28:59.914Z,12.03
2018-08-10T16:31:27.647Z,10.80
2018-08-10T16:33:55.490Z,13.37
2018-08-10T16:36:23.239Z,20.00
2018-08-10T16:38:51.022Z,12.13
2018-08-10T16:41:18.858Z,12.40
2018-08-10T16:43:46.917Z,11.80
2018-08-10T16:46:14.657Z,12.60
2018-08-10T16:48:42.468Z,9.17
2018-08-10T16:51:10.234Z,10.83
2018-08-10T16:53:37.977Z,13.77
2018-08-10T16:56:05.767Z,11.23
2018-08-10T16:58:33.578Z,10.17
2018-08-10T17:01:01.367Z,10.47
2018-08-10T17:03:29.152Z,10.63
2018-08-10T17:05:56.922Z,11.10
2018-08-10T17:08:24.684Z,10.07
2018-08-10T17:10:52.470Z,13.47
2018-08-10T17:13:20.210Z,9.80
2018-08-10T17:15:47.969Z,7.90
2018-08-10T17:18:15.773Z,5.43
2018-08-10T17:20:43.534Z,7.77
2018-08-10T17:23:11.304Z,6.80
2018-08-10T17:25:39.349Z,3.33
2018-08-10T17:28:07.148Z,2.03
2018-08-10T17:30:34.883Z,5.20
2018-08-10T17:33:02.778Z,1.83
2018-08-10T17:35:30.546Z,3.17
2018-08-10T17:37:58.332Z,3.27
2018-08-10T17:40:26.054Z,2.30
2018-08-10T17:42:53.781Z,2.37
2018-08-10T17:45:21.478Z,1.70
2018-08-10T17:47:49.278Z,1.40
2018-08-10T17:50:18.966Z,1.90
2018-08-10T17:52:48.503Z,3.27
2018-08-10T17:55:16.981Z,6.70
2018-08-10T17:57:44.957Z,2.07
2018-08-10T18:00:15.370Z,3.13
2018-08-10T18:02:43.466Z,1.53
2018-08-10T18:05:12.860Z,2.20
2018-08-10T18:07:40.873Z,2.67
2018-08-10T18:10:09.575Z,2.17
2018-08-10T18:12:38.500Z,2.27
2018-08-10T18:15:08.088Z,2.10
2018-08-10T18:17:36.560Z,3.47
2018-08-10T18:20:06.668Z,2.87
2018-08-10T18:22:34.371Z,2.37
2018-08-10T18:25:02.208Z,1.63
2018-08-10T18:27:30.147Z,2.67
2018-08-10T18:29:57.898Z,1.43
2018-08-10T18:32:25.677Z,2.87
2018-08-10T18:34:53.529Z,4.20
2018-08-10T18:37:21.206Z,4.13
2018-08-10T18:39:49.010Z,4.20
2018-08-10T18:42:16.709Z,1.43
2018-08-10T18:44:44.484Z,1.47
2018-08-10T18:47:12.323Z,2.27
2018-08-10T18:49:40.061Z,1.37
2018-08-10T18:52:07.826Z,1.63
2018-08-10T18:54:35.811Z,6.20
2018-08-10T18:57:03.761Z,3.90
2018-08-10T18:59:31.516Z,5.30
2018-08-10T19:01:59.347Z,3.90
2018-08-10T19:04:27.072Z,3.17
2018-08-10T19:06:54.889Z,2.47
2018-08-10T19:09:22.704Z,5.20
2018-08-10T19:11:50.386Z,1.03
2018-08-10T19:14:18.222Z,2.93
2018-08-10T19:16:45.948Z,3.63
2018-08-10T19:19:13.635Z,2.87
2018-08-10T19:21:41.304Z,2.33
2018-08-10T19:24:09.098Z,2.27
2018-08-10T19:26:37.060Z,1.20
2018-08-10T19:29:04.861Z,3.47
2018-08-10T19:31:32.579Z,2.40
2018-08-10T19:34:00.282Z,3.97
2018-08-10T19:36:27.988Z,1.40
2018-08-10T19:38:55.700Z,2.97
2018-08-10T19:41:23.404Z,3.03
2018-08-10T19:43:51.186Z,3.27
2018-08-10T19:46:18.953Z,3.60
2018-08-10T19:48:46.707Z,4.17
2018-08-10T19:51:14.532Z,2.17
2018-08-10T19:53:42.321Z,3.00
2018-08-10T19:56:10.133Z,3.50
2018-08-10T19:58:37.742Z,3.80
2018-08-10T20:01:05.443Z,3.50
2018-08-10T20:03:33.173Z,6.07
2018-08-10T20:06:00.935Z,4.47
2018-08-10T20:08:28.750Z,3.97
2018-08-10T20:10:56.440Z,2.93
2018-08-10T20:13:24.372Z,8.60
2018-08-10T20:15:52.199Z,5.70
2018-08-10T20:18:19.924Z,5.20
2018-08-10T20:20:47.728Z,4.43
2018-08-10T20:23:16.745Z,3.37
2018-08-10T20:25:44.439Z,7.90
2018-08-10T20:28:12.181Z,6.83
2018-08-10T20:30:39.969Z,2.10
2018-08-10T20:33:07.634Z,6.37
2018-08-10T20:35:35.411Z,5.33
2018-08-10T20:38:03.252Z,3.63
2018-08-10T20:40:31.081Z,7.00
2018-08-10T20:42:58.946Z,2.50
2018-08-10T20:45:26.723Z,5.07
2018-08-10T20:47:54.467Z,6.63
2018-08-10T20:50:23.634Z,7.70
2018-08-10T20:52:51.428Z,4.60
2018-08-10T20:55:19.318Z,3.70
2018-08-10T20:57:47.431Z,4.83
2018-08-10T21:00:15.227Z,6.40
2018-08-10T21:02:43.843Z,6.90
2018-08-10T21:05:12.070Z,6.63
2018-08-10T21:07:39.834Z,4.77
2018-08-10T21:10:10.001Z,3.50
2018-08-10T21:12:38.124Z,5.97
2018-08-10T21:15:07.260Z,5.90
2018-08-10T21:17:35.023Z,5.33
2018-08-10T21:20:02.762Z,5.53
2018-08-10T21:22:30.497Z,5.77
2018-08-10T21:24:58.236Z,4.53
2018-08-10T21:27:25.929Z,3.97
2018-08-10T21:29:53.712Z,3.93
2018-08-10T21:32:21.426Z,4.10
2018-08-10T21:34:49.075Z,4.23
2018-08-10T21:37:16.824Z,8.33
2018-08-10T21:39:44.488Z,3.53
2018-08-10T21:42:12.181Z,3.97
2018-08-10T21:44:39.917Z,4.37
2018-08-10T21:47:07.604Z,7.33
2018-08-10T21:49:35.322Z,5.50
2018-08-10T21:52:03.088Z,4.57
2018-08-10T21:54:30.820Z,5.90
2018-08-10T21:56:58.527Z,7.10
2018-08-10T21:59:26.285Z,6.13
2018-08-10T22:01:54.096Z,3.03
2018-08-10T22:04:21.884Z,8.00
2018-08-10T22:06:49.646Z,9.43
2018-08-10T22:09:17.370Z,8.00
2018-08-10T22:11:45.098Z,4.73
2018-08-10T22:14:18.488Z,4.93
2018-08-10T22:16:51.642Z,8.20
2018-08-10T22:19:19.376Z,7.27
2018-08-10T22:21:47.112Z,4.50
2018-08-10T22:24:15.321Z,4.87
2018-08-10T22:26:43.304Z,6.03
2018-08-10T22:29:11.167Z,4.60
2018-08-10T22:31:39.004Z,7.60
2018-08-10T22:34:06.925Z,5.13
2018-08-10T22:36:34.659Z,3.63
2018-08-10T22:39:02.610Z,5.60
2018-08-10T22:41:30.317Z,4.30
2018-08-10T22:43:57.999Z,5.90
2018-08-10T22:46:25.756Z,5.83
2018-08-10T22:48:53.472Z,4.20
2018-08-10T22:51:21.151Z,4.10
2018-08-10T22:53:48.851Z,4.00
2018-08-10T22:56:16.600Z,4.43
2018-08-10T22:58:44.318Z,4.20
2018-08-10T23:01:12.056Z,5.77
2018-08-10T23:03:39.778Z,5.30
2018-08-10T23:06:07.445Z,5.57
2018-08-10T23:08:35.207Z,4.07
2018-08-10T23:11:03.021Z,3.73
2018-08-10T23:13:30.765Z,3.47
2018-08-10T23:15:58.629Z,5.97
2018-08-10T23:18:26.437Z,4.47
2018-08-10T23:20:54.163Z,2.70
2018-08-10T23:23:21.877Z,4.93
2018-08-10T23:25:49.605Z,4.07
2018-08-10T23:28:17.285Z,5.17
2018-08-10T23:30:44.968Z,5.13
2018-08-10T23:33:12.715Z,5.90
2018-08-10T23:35:40.392Z,5.77
2018-08-10T23:38:08.082Z,5.37
2018-08-10T23:40:35.916Z,5.10
2018-08-10T23:43:03.728Z,3.77
2018-08-10T23:45:31.561Z,4.00
2018-08-10T23:47:59.335Z,4.33
2018-08-10T23:50:27.000Z,2.80
2018-08-10T23:52:54.708Z,4.57
2018-08-10T23:55:22.460Z,2.37
2018-08-10T23:57:50.251Z,3.70
